Time;durP1;ratioP1;P1;durP2;ratioP2;P2;SDS_P1;SDS_P2;PMS_P1;PMS_P2;Temp;Humidity;BMP_temperature;BMP_pressure;BME280_temperature;BME280_humidity;BME280_pressure;Samples;Min_cycle;Max_cycle;Signal;HPM_P1;HPM_P2
2022/06/23 00:01:17;;;;;;;13.77;6.60;;;;;;;23.12;nan;94919.75;6275187;22;20320;-82
2022/06/23 00:03:45;;;;;;;17.10;7.10;;;;;;;22.97;nan;94912.53;6275841;22;20020;-82
2022/06/23 00:06:21;;;;;;;12.48;6.40;;;;;;;22.71;nan;94894.25;6275206;22;20003;-82
2022/06/23 00:08:47;;;;;;;13.35;6.65;;;;;;;22.90;nan;94909.69;6274840;22;20007;-82
2022/06/23 00:11:22;;;;;;;16.65;7.05;;;;;;;22.93;nan;94909.00;6274078;22;20007;-82
2022/06/23 00:13:49;;;;;;;15.77;7.28;;;;;;;22.99;nan;94872.41;6274238;22;20000;-82
2022/06/23 00:16:27;;;;;;;15.20;8.13;;;;;;;23.61;nan;94957.78;6273093;22;20008;-82
2022/06/23 00:18:53;;;;;;;13.70;7.78;;;;;;;23.59;nan;94972.81;6274845;22;20076;-82
2022/06/23 00:21:31;;;;;;;20.90;7.38;;;;;;;23.38;nan;94933.38;6273400;22;20097;-82
2022/06/23 00:24:01;;;;;;;19.63;7.90;;;;;;;23.69;nan;94980.31;6275266;22;20141;-81
2022/06/23 00:26:32;;;;;;;18.95;8.05;;;;;;;23.38;nan;94956.94;6274711;22;20391;-82
2022/06/23 00:29:01;;;;;;;;;;;;;;;23.61;nan;94979.44;6273628;22;20058;-82
2022/06/23 00:31:34;;;;;;;17.33;7.40;;;;;;;23.34;nan;94912.81;6275414;22;19953;-82
2022/06/23 00:34:03;;;;;;;16.75;7.68;;;;;;;23.68;nan;94965.22;6275497;22;20086;-82
2022/06/23 00:36:41;;;;;;;18.65;8.07;;;;;;;22.92;nan;94869.56;6275355;22;20007;-82
2022/06/23 00:39:41;;;;;;;18.83;7.63;;;;;;;22.87;nan;94867.94;6275738;22;20047;-82
2022/06/23 00:42:23;;;;;;;17.27;7.22;;;;;;;23.32;nan;94926.72;6267171;22;20075;-82
2022/06/23 00:45:13;;;;;;;16.42;6.80;;;;;;;22.79;nan;94825.69;6275332;22;20004;-83
2022/06/23 00:47:41;;;;;;;14.10;6.82;;;;;;;23.35;nan;94907.03;6273935;22;20007;-82
2022/06/23 00:50:49;;;;;;;21.85;7.60;;;;;;;22.81;nan;94834.22;6273851;22;20419;-82
2022/06/23 00:53:26;;;;;;;18.48;8.20;;;;;;;23.39;nan;94934.94;6240153;22;20047;-82
2022/06/23 00:56:00;;;;;;;14.23;7.03;;;;;;;23.38;nan;94932.59;6272179;22;20465;-82
2022/06/23 00:58:42;;;;;;;12.50;7.25;;;;;;;23.30;nan;94933.63;6273651;22;20035;-82
2022/06/23 01:01:35;;;;;;;14.45;7.65;;;;;;;22.83;nan;94844.69;6273900;22;20387;-82
2022/06/23 01:04:06;;;;;;;23.25;7.43;;;;;;;23.38;nan;94944.22;6273661;22;20061;-82
2022/06/23 01:06:42;;;;;;;;;;;;;;;23.39;nan;94932.25;6276361;22;20391;-82
2022/06/23 01:09:22;;;;;;;14.02;7.85;;;;;;;23.10;nan;94935.59;6275314;22;19926;-83
2022/06/23 01:11:54;;;;;;;17.45;8.10;;;;;;;22.24;nan;94799.91;6275281;22;20019;-82
2022/06/23 01:14:37;;;;;;;17.88;7.78;;;;;;;23.15;nan;94942.63;6275161;22;20424;-83
2022/06/23 01:17:14;;;;;;;18.50;8.00;;;;;;;23.10;nan;94943.69;6273295;22;20038;-82
2022/06/23 01:19:45;;;;;;;19.48;7.97;;;;;;;22.99;nan;94926.47;6273720;22;20023;-82
2022/06/23 01:22:33;;;;;;;;;;;;;;;23.02;nan;94933.88;6276146;22;20010;-82
2022/06/23 01:25:18;;;;;;;20.23;7.93;;;;;;;22.31;nan;94833.25;6260418;22;19911;-83
2022/06/23 01:28:08;;;;;;;16.75;7.78;;;;;;;23.15;nan;94919.06;6273045;22;20034;-82
2022/06/23 01:30:45;;;;;;;15.02;7.93;;;;;;;22.96;nan;94887.41;6275348;22;20049;-82
2022/06/23 01:33:22;;;;;;;12.07;7.22;;;;;;;22.41;nan;94852.75;6275170;22;20018;-83
2022/06/23 01:36:01;;;;;;;18.98;7.43;;;;;;;22.85;nan;94921.59;6274618;22;20413;-83
2022/06/23 01:38:51;;;;;;;21.33;8.43;;;;;;;22.91;nan;94922.06;6274692;22;20066;-82
2022/06/23 01:41:22;;;;;;;14.40;8.13;;;;;;;22.99;nan;94910.25;6273282;22;20072;-83
2022/06/23 01:44:19;;;;;;;20.85;7.78;;;;;;;22.90;nan;94891.53;6274740;22;20007;-83
2022/06/23 01:46:50;;;;;;;19.83;8.07;;;;;;;23.12;nan;94903.53;6230123;22;20007;-83
2022/06/23 01:49:20;;;;;;;23.10;7.97;;;;;;;22.29;nan;94826.63;6273249;22;20004;-82
2022/06/23 01:51:49;;;;;;;16.30;7.97;;;;;;;22.89;nan;94897.31;6273261;22;20446;-83
2022/06/23 01:54:20;;;;;;;17.80;7.80;;;;;;;22.85;nan;94899.19;6275092;22;20003;-82
2022/06/23 01:57:14;;;;;;;20.23;8.57;;;;;;;22.82;nan;94880.97;6274518;22;20020;-82
2022/06/23 02:00:00;;;;;;;15.07;7.75;;;;;;;22.73;nan;94878.47;6275382;22;20011;-83
2022/06/23 02:02:41;;;;;;;14.95;7.93;;;;;;;22.70;nan;94882.66;6260072;22;20015;-83
2022/06/23 02:05:26;;;;;;;14.63;8.15;;;;;;;22.19;nan;94802.91;6275484;22;20351;-83
2022/06/23 02:08:02;;;;;;;16.90;7.80;;;;;;;21.92;nan;94789.22;6275592;22;20012;-83
2022/06/23 02:10:39;;;;;;;21.25;8.90;;;;;;;22.10;nan;94786.13;6275531;22;20409;-82
2022/06/23 02:13:07;;;;;;;17.77;8.40;;;;;;;22.55;nan;94888.94;6273195;22;20007;-83
2022/06/23 02:16:36;;;;;;;19.92;8.52;;;;;;;22.11;nan;94822.81;6275160;22;20059;-83
2022/06/23 02:19:24;;;;;;;20.38;9.20;;;;;;;22.65;nan;94890.28;6155728;23;20553;-82
2022/06/23 02:22:01;;;;;;;14.73;8.38;;;;;;;22.43;nan;94877.50;6181084;23;20145;-83
2022/06/23 02:24:51;;;;;;;15.73;8.82;;;;;;;22.33;nan;94860.69;6246466;22;20368;-83
2022/06/23 02:27:24;;;;;;;23.63;9.13;;;;;;;22.43;nan;94880.19;6274063;22;20012;-82
2022/06/23 02:30:02;;;;;;;23.48;8.85;;;;;;;22.44;nan;94879.03;6275380;22;19996;-83
2022/06/23 02:32:30;;;;;;;15.73;8.52;;;;;;;22.41;nan;94887.88;6276033;22;20030;-82
2022/06/23 02:35:08;;;;;;;16.58;8.90;;;;;;;22.39;nan;94885.50;6273374;22;20019;-83
2022/06/23 02:38:02;;;;;;;17.65;9.48;;;;;;;21.65;nan;94763.22;6272926;22;20098;-82
2022/06/23 02:40:33;;;;;;;17.33;9.30;;;;;;;22.40;nan;94892.47;6273240;22;20034;-83
2022/06/23 02:43:14;;;;;;;;;;;;;;;22.29;nan;94889.56;6275948;22;20061;-82
2022/06/23 02:45:46;;;;;;;24.73;8.90;;;;;;;22.32;nan;94885.38;6273398;22;20227;-83
2022/06/23 02:48:36;;;;;;;14.32;7.82;;;;;;;22.40;nan;94894.41;6273622;22;20023;-83
2022/06/23 02:51:25;;;;;;;23.23;8.98;;;;;;;22.38;nan;94896.66;6275707;22;19999;-83
2022/06/23 02:54:16;;;;;;;18.23;9.70;;;;;;;22.38;nan;94907.47;6275147;22;20078;-82
2022/06/23 02:57:20;;;;;;;21.42;9.77;;;;;;;21.75;nan;94811.22;6274837;22;20062;-83
2022/06/23 03:00:16;;;;;;;21.92;9.57;;;;;;;22.38;nan;94897.44;6222633;22;20020;-82
2022/06/23 03:02:51;;;;;;;28.17;9.70;;;;;;;22.39;nan;94909.03;6275322;22;20010;-83
2022/06/23 03:05:35;;;;;;;22.42;8.90;;;;;;;21.56;nan;94911.03;6275377;22;20431;-84
2022/06/23 03:08:39;;;;;;;25.58;9.60;;;;;;;21.16;nan;94822.16;6273242;22;20062;-83
2022/06/23 03:11:51;;;;;;;22.80;9.73;;;;;;;21.24;nan;94796.97;6278473;22;20693;-84
2022/06/23 03:14:19;;;;;;;24.27;10.07;;;;;;;21.51;nan;94830.34;6277357;22;20042;-84
2022/06/23 03:16:55;;;;;;;24.90;10.93;;;;;;;20.84;nan;94751.28;6275052;22;20007;-84
2022/06/23 03:20:13;;;;;;;21.25;10.13;;;;;;;21.57;nan;94837.03;6275548;22;20439;-83
2022/06/23 03:22:48;;;;;;;23.17;10.18;;;;;;;21.91;nan;94901.03;6217706;22;20445;-84
2022/06/23 03:25:22;;;;;;;29.10;10.10;;;;;;;22.05;nan;94899.84;6277595;22;20034;-84
2022/06/23 03:28:13;;;;;;;24.55;10.35;;;;;;;21.70;nan;94856.59;6275439;22;20030;-83
2022/06/23 03:30:50;;;;;;;28.30;10.30;;;;;;;22.08;nan;94894.50;6277520;22;20050;-84
2022/06/23 03:33:45;;;;;;;22.58;10.18;;;;;;;21.69;nan;94834.22;6277011;22;20700;-84
2022/06/23 03:36:26;;;;;;;25.48;10.60;;;;;;;21.93;nan;94873.69;6273623;22;20423;-84
2022/06/23 03:42:28;;;;;;;20.20;10.00;;;;;;;22.14;nan;94889.59;6277411;22;20022;-84
2022/06/23 03:45:26;;;;;;;22.33;9.90;;;;;;;22.06;nan;94894.06;6250005;22;20071;-84
2022/06/23 03:48:03;;;;;;;30.13;10.38;;;;;;;21.83;nan;94839.94;6263331;22;20007;-84
2022/06/23 03:50:43;;;;;;;17.98;9.90;;;;;;;21.67;nan;94814.88;6277160;22;20023;-84
2022/06/23 03:53:28;;;;;;;22.35;9.85;;;;;;;21.56;nan;94795.78;6276946;22;20018;-84
2022/06/23 03:56:03;;;;;;;23.02;9.80;;;;;;;22.11;nan;94891.13;6276273;22;20007;-84
2022/06/23 03:58:28;;;;;;;20.70;9.60;;;;;;;22.20;nan;94904.41;6274190;22;20035;-84
2022/06/23 04:01:04;;;;;;;17.35;9.23;;;;;;;22.21;nan;94898.63;6274764;22;20011;-83
2022/06/23 04:04:00;;;;;;;37.95;9.77;;;;;;;22.15;nan;94896.56;6277531;22;20004;-84
2022/06/23 04:06:43;;;;;;;18.05;10.38;;;;;;;21.85;nan;94867.34;6275496;22;20000;-83
2022/06/23 04:09:32;;;;;;;21.73;10.32;;;;;;;22.05;nan;94910.66;6274181;22;20038;-83
2022/06/23 04:12:08;;;;;;;23.85;10.10;;;;;;;22.04;nan;94914.47;6275383;22;20419;-83
2022/06/23 04:14:36;;;;;;;25.52;10.95;;;;;;;21.97;nan;94908.91;6275288;22;20004;-84
2022/06/23 04:17:28;;;;;;;24.55;11.95;;;;;;;21.51;nan;94833.06;6268090;22;20057;-84
2022/06/23 04:20:29;;;;;;;29.25;12.07;;;;;;;21.97;nan;94909.69;6273404;22;20008;-84
2022/06/23 04:23:16;;;;;;;27.37;11.43;;;;;;;21.95;nan;94920.81;6273488;22;20000;-84
2022/06/23 04:25:59;;;;;;;27.27;11.65;;;;;;;22.02;nan;94904.03;6274802;22;20010;-84
2022/06/23 04:28:53;;;;;;;22.10;11.70;;;;;;;21.90;nan;94909.50;6270708;22;20012;-84
2022/06/23 04:31:32;;;;;;;22.98;11.23;;;;;;;21.58;nan;94849.41;6271145;22;20084;-84
2022/06/23 04:33:59;;;;;;;19.90;11.27;;;;;;;21.34;nan;94812.63;6268682;22;20031;-83
2022/06/23 04:36:31;;;;;;;26.40;11.82;;;;;;;21.84;nan;94865.00;6271004;22;20402;-83
2022/06/23 04:39:06;;;;;;;;;;;;;;;22.02;nan;94906.72;6270957;22;20536;-84
2022/06/23 04:41:44;;;;;;;22.92;11.52;;;;;;;21.49;nan;94816.44;6275267;22;19911;-84
2022/06/23 04:44:22;;;;;;;27.23;11.65;;;;;;;21.89;nan;94862.06;6271572;22;20004;-84
2022/06/23 04:46:53;;;;;;;21.23;11.35;;;;;;;22.07;nan;94886.75;6265976;22;20007;-83
2022/06/23 04:49:41;;;;;;;26.83;12.45;;;;;;;22.13;nan;94893.44;6261651;22;20093;-83
2022/06/23 04:52:16;;;;;;;23.35;11.77;;;;;;;22.20;nan;94899.00;6266656;22;20480;-83
2022/06/23 04:55:06;;;;;;;22.33;11.52;;;;;;;22.18;nan;94910.16;6269857;22;20481;-83
2022/06/23 04:57:42;;;;;;;18.13;11.50;;;;;;;22.01;nan;94871.97;6269084;22;20014;-83
2022/06/23 05:00:32;;;;;;;28.77;12.65;;;;;;;22.26;nan;94901.09;6265698;22;20122;-83
2022/06/23 05:03:04;;;;;;;18.75;10.07;;;;;;;21.85;nan;94818.00;6269176;22;20011;-83
2022/06/23 05:05:33;;;;;;;23.60;11.05;;;;;;;22.04;nan;94847.75;6268409;22;20004;-83
2022/06/23 05:08:26;;;;;;;22.85;11.43;;;;;;;22.13;nan;94844.81;6270428;22;20027;-83
2022/06/23 05:11:12;;;;;;;20.52;10.55;;;;;;;21.78;nan;94782.75;6267891;22;20082;-82
2022/06/23 05:13:44;;;;;;;20.25;10.82;;;;;;;22.35;nan;94875.78;6266905;22;20069;-83
2022/06/23 05:16:45;;;;;;;25.95;11.05;;;;;;;22.59;nan;94883.56;6271514;22;20007;-83
2022/06/23 05:19:22;;;;;;;33.55;11.30;;;;;;;22.65;nan;94896.47;6260474;22;20019;-83
2022/06/23 05:21:54;;;;;;;24.50;11.60;;;;;;;22.18;nan;94822.97;6268077;22;20311;-83
2022/06/23 05:24:35;;;;;;;25.45;11.90;;;;;;;19.45;nan;94397.19;6266997;22;20552;-83
2022/06/23 05:27:32;;;;;;;20.08;12.50;;;;;;;19.54;nan;94380.88;6268966;22;20169;-83
2022/06/23 05:30:29;;;;;;;20.83;11.77;;;;;;;23.08;nan;94878.34;6265311;22;20014;-83
2022/06/23 05:33:12;;;;;;;30.85;12.52;;;;;;;22.61;nan;94787.50;6255264;22;20501;-83
2022/06/23 05:35:42;;;;;;;26.73;11.57;;;;;;;23.21;nan;94887.06;6268239;22;20015;-83
2022/06/23 05:38:43;;;;;;;26.98;12.50;;;;;;;23.26;nan;94913.84;6262597;22;20008;-83
2022/06/23 05:41:35;;;;;;;32.00;13.57;;;;;;;23.15;nan;94926.38;6263302;22;20039;-83
2022/06/23 05:44:09;;;;;;;25.33;12.02;;;;;;;22.40;nan;94757.41;6267280;22;20015;-83
2022/06/23 05:46:40;;;;;;;32.97;11.70;;;;;;;22.55;nan;94794.34;6266323;22;20011;-82
2022/06/23 05:49:26;;;;;;;27.83;11.43;;;;;;;22.72;nan;94849.88;6265835;22;20714;-83
2022/06/23 05:52:03;;;;;;;26.30;11.85;;;;;;;22.56;nan;94900.53;6261440;22;20031;-82
2022/06/23 05:54:48;;;;;;;27.60;10.95;;;;;;;21.93;nan;94992.50;6261452;22;20003;-82
2022/06/23 05:57:23;;;;;;;26.30;11.88;;;;;;;21.27;nan;95246.69;6262485;22;20034;-82
2022/06/23 06:00:12;;;;;;;33.88;12.43;;;;;;;20.37;nan;95314.94;6260950;22;20358;-82
2022/06/23 06:03:01;;;;;;;78.95;19.08;;;;;;;20.37;nan;95314.94;6266335;22;20011;-86
2022/06/23 06:05:32;;;;;;;66.72;13.18;;;;;;;18.23;nan;95075.28;6265068;22;20102;-86
2022/06/23 06:08:09;;;;;;;82.30;14.60;;;;;;;17.29;nan;94898.34;6263231;22;20008;-86
2022/06/23 06:10:36;;;;;;;28.88;11.98;;;;;;;17.24;nan;94962.06;6261212;22;20014;-85
2022/06/23 06:13:07;;;;;;;23.40;11.52;;;;;;;17.36;nan;95031.84;6264322;22;20087;-86
2022/06/23 06:15:38;;;;;;;25.55;12.02;;;;;;;17.47;nan;95152.94;6266160;22;20007;-86
2022/06/23 06:18:10;;;;;;;;;;;;;;;17.26;nan;95144.75;6262160;22;19999;-85
2022/06/23 06:20:39;;;;;;;25.20;13.63;;;;;;;16.01;nan;94983.03;6262385;22;20420;-84
2022/06/23 06:23:23;;;;;;;31.58;13.32;;;;;;;13.73;nan;94626.13;6262046;22;20069;-85
2022/06/23 06:25:56;;;;;;;25.20;11.63;;;;;;;15.37;nan;94827.66;6259887;22;20485;-85
2022/06/23 06:28:31;;;;;;;33.85;13.85;;;;;;;16.75;nan;95009.72;6260880;22;20486;-85
2022/06/23 06:31:15;;;;;;;41.38;14.38;;;;;;;17.45;nan;95074.72;6265696;22;20074;-85
2022/06/23 06:33:58;;;;;;;24.50;12.35;;;;;;;16.90;nan;94958.34;6260288;22;20015;-85
2022/06/23 06:36:36;;;;;;;22.55;13.43;;;;;;;17.69;nan;95048.97;6261231;22;20080;-85
2022/06/23 06:39:14;;;;;;;26.48;12.90;;;;;;;17.94;nan;95051.88;6260670;22;20028;-85
2022/06/23 06:41:43;;;;;;;27.20;12.75;;;;;;;17.03;nan;94875.41;6265307;22;20015;-85
2022/06/23 06:44:11;;;;;;;22.48;11.50;;;;;;;18.37;nan;95051.66;6257915;22;20468;-85
2022/06/23 06:46:39;;;;;;;23.90;12.18;;;;;;;18.44;nan;95043.88;6260560;22;20073;-84
2022/06/23 06:49:05;;;;;;;18.77;10.25;;;;;;;17.33;nan;94853.69;6262796;22;20040;-86
2022/06/23 06:51:32;;;;;;;17.63;10.23;;;;;;;18.24;nan;94961.41;6263402;22;20016;-86
2022/06/23 06:54:05;;;;;;;24.42;9.00;;;;;;;18.12;nan;94943.34;6264249;22;20033;-85
2022/06/23 06:56:39;;;;;;;18.63;9.07;;;;;;;18.39;nan;94948.19;6260685;22;20019;-85
2022/06/23 06:59:12;;;;;;;20.60;9.93;;;;;;;19.03;nan;95024.94;6261321;22;20008;-85
2022/06/23 07:01:40;;;;;;;15.85;8.88;;;;;;;18.93;nan;95006.53;6263127;22;20015;-84
2022/06/23 07:04:17;;;;;;;15.65;8.15;;;;;;;18.66;nan;94957.63;6262269;22;20012;-85
2022/06/23 07:06:49;;;;;;;14.77;8.82;;;;;;;18.35;nan;94855.22;6262181;22;20077;-85
2022/06/23 07:09:31;;;;;;;17.50;9.05;;;;;;;19.28;nan;95002.41;6262137;22;20034;-86
2022/06/23 07:12:14;;;;;;;19.40;8.65;;;;;;;19.32;nan;95010.59;6259049;22;20084;-86
2022/06/23 07:14:57;;;;;;;22.63;10.68;;;;;;;19.68;nan;95032.22;6261724;22;20039;-85
2022/06/23 07:17:37;;;;;;;17.60;10.80;;;;;;;18.93;nan;94917.88;6258057;22;20004;-86
2022/06/23 07:20:28;;;;;;;17.17;10.07;;;;;;;19.91;nan;95037.97;6258684;22;20506;-86
2022/06/23 07:23:13;;;;;;;24.45;10.23;;;;;;;19.98;nan;95043.59;6260423;22;20020;-85
2022/06/23 07:25:47;;;;;;;25.48;11.65;;;;;;;19.63;nan;94994.75;6260654;22;20439;-86
2022/06/23 07:28:54;;;;;;;21.08;12.48;;;;;;;20.13;nan;95066.34;6258688;22;20083;-86
2022/06/23 07:31:27;;;;;;;24.02;12.43;;;;;;;20.31;nan;95087.31;6257394;22;20106;-86
2022/06/23 07:33:59;;;;;;;25.10;12.35;;;;;;;20.29;nan;95065.31;6260240;22;20008;-84
2022/06/23 07:36:43;;;;;;;21.33;11.80;;;;;;;20.26;nan;95071.41;6257268;22;20111;-85
2022/06/23 07:39:15;;;;;;;22.98;12.32;;;;;;;19.97;nan;95040.09;6256584;22;20023;-86
2022/06/23 07:41:43;;;;;;;26.75;13.38;;;;;;;19.69;nan;95009.56;6256936;22;20012;-86
2022/06/23 07:44:13;;;;;;;28.60;14.48;;;;;;;20.38;nan;95076.03;6256405;22;20358;-85
2022/06/23 07:46:38;;;;;;;24.08;13.68;;;;;;;20.09;nan;95014.28;6257738;22;20008;-85
2022/06/23 07:49:06;;;;;;;27.65;12.77;;;;;;;19.99;nan;95039.75;6256296;22;20077;-85
2022/06/23 07:51:31;;;;;;;25.67;12.10;;;;;;;20.18;nan;95053.44;6257249;22;20007;-85
2022/06/23 07:53:58;;;;;;;25.58;10.77;;;;;;;20.07;nan;95078.44;6257161;22;20015;-84
2022/06/23 07:56:28;;;;;;;30.58;11.07;;;;;;;20.14;nan;95024.84;6261838;22;20068;-85
2022/06/23 07:58:57;;;;;;;32.33;10.35;;;;;;;20.69;nan;95073.50;6259274;22;20375;-85
2022/06/23 08:01:28;;;;;;;29.67;9.85;;;;;;;20.97;nan;95095.16;6264769;22;20012;-85
2022/06/23 08:04:29;;;;;;;23.30;7.65;;;;;;;20.97;nan;95086.28;6261026;22;20058;-85
2022/06/23 08:06:57;;;;;;;25.33;9.00;;;;;;;21.09;nan;95043.09;6264096;22;20003;-84
2022/06/23 08:09:51;;;;;;;26.13;7.63;;;;;;;20.40;nan;95017.22;6261077;22;20003;-84
2022/06/23 08:18:33;;;;;;;13.15;4.85;;;;;;;21.03;nan;95071.44;6261582;22;20108;-85
2022/06/23 08:21:14;;;;;;;;;;;;;;;21.21;nan;95074.66;6189346;22;20023;-85
2022/06/23 08:24:23;;;;;;;14.32;5.93;;;;;;;21.24;nan;95085.53;6258776;22;19921;-85
2022/06/23 08:26:55;;;;;;;24.05;6.35;;;;;;;20.57;nan;94952.31;6252792;22;20098;-86
2022/06/23 08:29:27;;;;;;;21.40;6.35;;;;;;;20.95;nan;94988.78;6257989;22;20015;-85
2022/06/23 08:31:53;;;;;;;21.85;7.10;;;;;;;21.06;nan;94970.97;6260365;22;20369;-84
2022/06/23 08:34:18;;;;;;;24.67;7.45;;;;;;;21.36;nan;94993.00;6258954;22;20138;-85
2022/06/23 08:36:46;;;;;;;20.95;8.50;;;;;;;21.85;nan;95072.53;6261670;22;20141;-85
2022/06/23 08:39:47;;;;;;;17.15;6.55;;;;;;;21.55;nan;94993.09;6260879;22;20110;-85
2022/06/23 08:42:21;;;;;;;19.27;7.22;;;;;;;21.82;nan;94986.81;6255906;22;20254;-85
2022/06/23 08:45:18;;;;;;;21.13;7.05;;;;;;;22.45;nan;95058.94;6259897;22;20482;-85
2022/06/23 08:48:06;;;;;;;21.75;8.07;;;;;;;22.48;nan;95050.91;6261912;22;20011;-85
2022/06/23 08:50:35;;;;;;;20.90;7.43;;;;;;;22.23;nan;95049.56;6258554;22;20067;-84
2022/06/23 08:53:13;;;;;;;13.23;7.55;;;;;;;22.36;nan;95042.91;6256934;22;20431;-84
2022/06/23 08:56:03;;;;;;;20.67;7.70;;;;;;;21.88;nan;94981.97;6257292;22;20523;-84
2022/06/23 08:58:46;;;;;;;15.38;8.10;;;;;;;22.44;nan;95049.25;6260456;22;20015;-84
2022/06/23 09:01:19;;;;;;;23.83;8.10;;;;;;;22.57;nan;95064.25;6261840;22;20020;-84
2022/06/23 09:03:50;;;;;;;19.13;8.55;;;;;;;22.43;nan;95007.19;6261722;22;20050;-85
2022/06/23 09:06:28;;;;;;;;;;;;;;;22.82;nan;95045.88;6262634;22;20069;-85
2022/06/23 09:09:02;;;;;;;16.65;8.15;;;;;;;22.91;nan;95051.88;6260158;22;19919;-85
2022/06/23 09:11:28;;;;;;;14.20;8.45;;;;;;;22.89;nan;95046.03;6258622;22;20050;-85
2022/06/23 09:14:20;;;;;;;17.38;9.23;;;;;;;22.24;nan;94924.94;6263488;22;20279;-85
2022/06/23 09:17:12;;;;;;;19.67;9.98;;;;;;;23.07;nan;95045.25;6261440;22;20011;-85
2022/06/23 09:20:18;;;;;;;24.55;9.73;;;;;;;23.28;nan;95038.69;6260020;22;20502;-85
2022/06/23 09:23:08;;;;;;;16.67;10.15;;;;;;;23.58;nan;95033.50;6115583;23;20009;-84
2022/06/23 09:25:59;;;;;;;20.85;10.05;;;;;;;23.14;nan;94955.34;6139449;23;20505;-85
2022/06/23 09:28:45;;;;;;;;;;;;;;;23.71;nan;95032.97;6241761;22;20466;-85
2022/06/23 09:31:18;;;;;;;17.73;9.85;;;;;;;23.38;nan;94960.44;6262963;22;19937;-85
2022/06/23 09:34:09;;;;;;;21.98;10.00;;;;;;;23.98;nan;95014.84;6252957;22;20015;-85
2022/06/23 09:37:04;;;;;;;23.77;10.38;;;;;;;23.47;nan;94966.41;6233818;22;20021;-84
2022/06/23 09:40:02;;;;;;;39.38;13.45;;;;;;;23.84;nan;95015.41;6222637;22;20031;-83
2022/06/23 09:42:52;;;;;;;22.33;10.95;;;;;;;23.64;nan;94983.34;6251345;22;20482;-84
2022/06/23 09:45:29;;;;;;;18.48;10.30;;;;;;;24.29;nan;95002.97;6258315;22;20799;-84
2022/06/23 09:48:25;;;;;;;18.27;9.32;;;;;;;25.21;nan;94989.88;6262922;22;20012;-85
2022/06/23 09:50:51;;;;;;;21.83;8.57;;;;;;;25.96;nan;94984.03;6265083;22;20011;-85
2022/06/23 09:53:25;;;;;;;23.90;9.32;;;;;;;26.46;nan;94995.31;6266590;22;20003;-84
2022/06/23 09:56:05;;;;;;;20.25;8.68;;;;;;;26.85;nan;94935.66;6264862;22;20015;-84
2022/06/23 09:58:56;;;;;;;13.95;7.07;;;;;;;27.12;nan;94936.94;6262567;22;20031;-84
2022/06/23 10:02:06;;;;;;;13.13;8.15;;;;;;;28.36;nan;94999.78;6261350;22;20082;-83
2022/06/23 10:04:43;;;;;;;16.20;7.75;;;;;;;28.51;nan;94999.75;6205835;22;20011;-83
2022/06/23 10:07:17;;;;;;;15.43;6.82;;;;;;;29.40;nan;94992.09;6259379;22;20008;-84
2022/06/23 10:10:07;;;;;;;14.32;6.13;;;;;;;29.37;nan;94993.66;6262791;22;20241;-83
2022/06/23 10:12:52;;;;;;;12.32;6.35;;;;;;;29.87;nan;95002.34;6258673;22;20029;-84
2022/06/23 10:15:36;;;;;;;15.75;7.78;;;;;;;29.98;nan;95001.53;6260453;22;20004;-84
2022/06/23 10:18:10;;;;;;;19.85;7.70;;;;;;;30.10;nan;94990.88;6262962;22;20114;-84
2022/06/23 10:20:51;;;;;;;20.65;7.35;;;;;;;29.41;nan;94994.44;6265777;22;20095;-84
2022/06/23 10:23:54;;;;;;;14.48;7.32;;;;;;;29.40;nan;94983.91;6261452;22;20359;-84
2022/06/23 10:26:40;;;;;;;16.15;6.65;;;;;;;29.19;nan;94973.84;6264969;22;20438;-85
2022/06/23 10:29:12;;;;;;;14.63;6.22;;;;;;;29.21;nan;94971.50;6259190;22;20008;-84
2022/06/23 10:31:46;;;;;;;18.52;8.95;;;;;;;29.61;nan;94959.19;6259660;22;20011;-84
2022/06/23 10:34:20;;;;;;;21.08;7.25;;;;;;;29.24;nan;94853.25;6260011;22;20015;-84
2022/06/23 10:37:01;;;;;;;25.15;9.15;;;;;;;29.85;nan;94968.38;6260845;22;20003;-84
2022/06/23 10:39:51;;;;;;;17.80;8.45;;;;;;;30.16;nan;94958.41;6262097;22;20019;-84
2022/06/23 10:42:55;;;;;;;21.00;7.65;;;;;;;29.99;nan;94926.50;6264436;22;20768;-84
2022/06/23 10:45:26;;;;;;;20.58;8.32;;;;;;;30.34;nan;94950.81;6260061;22;20015;-84
2022/06/23 10:48:15;;;;;;;14.85;7.85;;;;;;;30.37;nan;94908.19;6256117;22;20449;-84
2022/06/23 10:50:49;;;;;;;13.15;7.95;;;;;;;30.56;nan;94946.72;6257737;22;20015;-84
2022/06/23 10:53:30;;;;;;;18.27;7.43;;;;;;;31.06;nan;94943.41;6261446;22;20042;-84
2022/06/23 10:56:22;;;;;;;24.58;7.72;;;;;;;30.86;nan;94940.50;6263467;22;20020;-85
2022/06/23 10:59:15;;;;;;;26.63;9.30;;;;;;;31.02;nan;94939.94;6260857;22;20041;-84
2022/06/23 11:02:05;;;;;;;31.15;10.00;;;;;;;31.41;nan;94947.66;6261565;22;20115;-84
2022/06/23 11:04:46;;;;;;;15.53;8.00;;;;;;;31.57;nan;94955.28;6260048;22;20015;-85
2022/06/23 11:07:45;;;;;;;19.48;7.40;;;;;;;31.55;nan;94936.50;6261614;22;20022;-84
2022/06/23 11:10:23;;;;;;;16.33;7.57;;;;;;;31.55;nan;94944.72;6261757;22;20367;-85
2022/06/23 11:13:16;;;;;;;19.92;8.32;;;;;;;31.28;nan;94939.22;6259064;22;20018;-84
2022/06/23 11:16:20;;;;;;;17.67;8.48;;;;;;;31.17;nan;94948.78;6265229;22;20007;-85
2022/06/23 11:19:20;;;;;;;19.83;8.38;;;;;;;30.83;nan;94924.91;6249667;22;20014;-84
2022/06/23 11:21:54;;;;;;;20.25;7.88;;;;;;;30.92;nan;94870.41;6261847;22;20027;-84
2022/06/23 11:24:35;;;;;;;17.95;8.13;;;;;;;31.57;nan;94941.56;6262075;22;20049;-85
2022/06/23 11:27:32;;;;;;;22.08;7.97;;;;;;;31.78;nan;94944.78;6265855;22;20003;-84
2022/06/23 11:30:10;;;;;;;15.27;6.57;;;;;;;31.05;nan;94854.97;6264809;22;20518;-84
2022/06/23 11:32:53;;;;;;;20.70;6.82;;;;;;;31.63;nan;94942.69;6265885;22;20050;-84
2022/06/23 11:35:45;;;;;;;18.38;7.70;;;;;;;30.85;nan;94919.00;6265846;22;20008;-84
2022/06/23 11:38:55;;;;;;;17.98;7.18;;;;;;;30.85;nan;94960.09;6267099;22;20011;-84
2022/06/23 11:41:41;;;;;;;14.50;7.82;;;;;;;30.27;nan;94863.38;6121019;23;20044;-84
2022/06/23 11:44:28;;;;;;;16.45;7.63;;;;;;;31.14;nan;94963.28;6267068;22;20430;-84
2022/06/23 11:47:08;;;;;;;15.10;6.68;;;;;;;31.04;nan;94973.16;6267430;22;20007;-84
2022/06/23 11:49:44;;;;;;;11.40;5.10;;;;;;;30.05;nan;94905.78;6266982;22;20008;-84
2022/06/23 11:52:44;;;;;;;13.73;5.47;;;;;;;29.95;nan;94962.09;6290288;22;20007;-84
2022/06/23 11:55:20;;;;;;;17.42;5.85;;;;;;;29.64;nan;94898.28;6262596;22;20022;-84
2022/06/23 11:58:13;;;;;;;17.23;5.18;;;;;;;29.85;nan;94957.44;6263619;22;20012;-83
2022/06/23 12:01:14;;;;;;;11.40;5.15;;;;;;;29.74;nan;94954.03;6263694;22;20016;-83
2022/06/23 12:04:07;;;;;;;19.00;5.70;;;;;;;29.52;nan;94964.34;6263769;22;20364;-85
2022/06/23 12:06:51;;;;;;;11.45;5.10;;;;;;;28.60;nan;94954.53;6267640;22;20007;-84
2022/06/23 12:09:56;;;;;;;17.98;5.57;;;;;;;26.66;nan;94821.72;6260030;22;20011;-84
2022/06/23 12:12:22;;;;;;;18.95;5.70;;;;;;;26.77;nan;94872.28;6269416;22;20014;-85
2022/06/23 12:14:50;;;;;;;26.73;6.32;;;;;;;27.04;nan;94891.81;6265906;22;20098;-85
2022/06/23 12:17:26;;;;;;;15.38;5.00;;;;;;;27.47;nan;94938.94;6267576;22;20095;-84
2022/06/23 12:19:57;;;;;;;24.55;5.90;;;;;;;27.80;nan;94890.75;6268059;22;20022;-85
2022/06/23 12:22:58;;;;;;;16.65;5.63;;;;;;;28.26;nan;94924.22;6269844;22;20450;-85
2022/06/23 12:25:42;;;;;;;28.63;5.55;;;;;;;28.29;nan;94933.56;6245058;22;20015;-85
2022/06/23 12:28:33;;;;;;;13.32;5.13;;;;;;;28.01;nan;94915.25;6266801;22;20025;-85
2022/06/23 12:31:33;;;;;;;19.02;5.55;;;;;;;28.58;nan;94904.25;6264021;22;20011;-84
2022/06/23 12:34:11;;;;;;;21.67;5.95;;;;;;;28.67;nan;94897.22;6267289;22;20020;-85
2022/06/23 12:36:59;;;;;;;19.48;6.70;;;;;;;28.72;nan;94839.50;6265722;22;20057;-85
2022/06/23 12:39:36;;;;;;;20.88;6.47;;;;;;;29.15;nan;94913.78;6265613;22;20023;-84
2022/06/23 12:42:12;;;;;;;24.90;6.65;;;;;;;28.40;nan;94831.44;6266153;22;20012;-85
2022/06/23 12:45:02;;;;;;;17.55;6.85;;;;;;;28.99;nan;94934.56;6268288;22;20008;-84
2022/06/23 12:47:58;;;;;;;33.47;8.23;;;;;;;27.50;nan;94761.16;6267763;22;20043;-84
2022/06/23 12:50:44;;;;;;;27.27;7.93;;;;;;;27.26;nan;94825.34;6252215;22;20688;-85
2022/06/23 12:53:28;;;;;;;23.70;7.72;;;;;;;27.55;nan;94910.59;6268684;22;20004;-83
2022/06/23 12:56:32;;;;;;;26.42;8.13;;;;;;;27.34;nan;94909.75;6268991;22;20016;-84
2022/06/23 12:59:07;;;;;;;19.42;6.55;;;;;;;27.47;nan;94867.38;6267973;22;20015;-85